createdAt,value
2018-04-25T00:01:56.831Z,7.40
2018-04-25T00:04:24.780Z,13.90
2018-04-25T00:06:52.745Z,10.27
2018-04-25T00:09:20.661Z,10.63
2018-04-25T00:11:48.614Z,10.83
2018-04-25T00:14:16.521Z,13.30
2018-04-25T00:16:44.449Z,18.47
2018-04-25T00:19:12.382Z,9.23
2018-04-25T00:21:41.040Z,11.43
2018-04-25T00:24:08.974Z,13.13
2018-04-25T00:26:36.897Z,11.63
2018-04-25T00:29:04.831Z,14.53
2018-04-25T00:31:32.771Z,13.87
2018-04-25T00:34:00.696Z,11.83
2018-04-25T00:36:28.618Z,19.17
2018-04-25T00:38:56.553Z,14.50
2018-04-25T00:41:24.459Z,11.23
2018-04-25T00:43:52.369Z,12.93
2018-04-25T00:46:20.282Z,10.70
2018-04-25T00:48:48.334Z,15.57
2018-04-25T00:51:16.239Z,11.87
2018-04-25T00:53:44.264Z,14.20
2018-04-25T00:56:12.175Z,11.13
2018-04-25T00:58:40.093Z,16.80
2018-04-25T01:01:08.012Z,12.10
2018-04-25T01:03:35.911Z,10.40
2018-04-25T01:06:03.828Z,17.00
2018-04-25T01:08:31.743Z,16.27
2018-04-25T01:10:59.660Z,13.10
2018-04-25T01:13:27.579Z,23.20
2018-04-25T01:15:55.485Z,16.30
2018-04-25T01:18:23.407Z,12.83
2018-04-25T01:20:51.324Z,14.10
2018-04-25T01:23:20.017Z,19.87
2018-04-25T01:25:47.948Z,15.17
2018-04-25T01:28:21.248Z,11.97
2018-04-25T01:30:51.084Z,15.73
2018-04-25T01:33:23.915Z,15.40
2018-04-25T01:36:01.361Z,17.00
2018-04-25T01:38:30.639Z,10.70
2018-04-25T01:40:58.581Z,12.63
2018-04-25T01:43:26.480Z,17.77
2018-04-25T01:49:06.286Z,13.40
2018-04-25T01:51:46.167Z,12.97
2018-04-25T01:54:25.849Z,12.30
2018-04-25T01:57:05.504Z,13.53
2018-04-25T01:59:45.128Z,17.77
2018-04-25T02:02:12.551Z,11.47
2018-04-25T02:04:40.484Z,14.50
2018-04-25T02:07:08.408Z,17.60
2018-04-25T02:09:36.300Z,10.97
2018-04-25T02:12:04.223Z,19.30
2018-04-25T02:14:32.141Z,14.27
2018-04-25T02:17:00.037Z,17.63
2018-04-25T02:19:28.036Z,12.93
2018-04-25T02:21:55.948Z,17.80
2018-04-25T02:24:23.890Z,13.50
2018-04-25T02:26:51.897Z,16.10
2018-04-25T02:29:19.813Z,16.97
2018-04-25T02:31:47.731Z,14.00
2018-04-25T02:34:15.645Z,15.93
2018-04-25T02:36:43.559Z,13.30
2018-04-25T02:39:11.493Z,13.90
2018-04-25T02:41:39.408Z,12.00
2018-04-25T02:44:07.412Z,15.97
2018-04-25T02:46:35.314Z,19.93
2018-04-25T02:49:03.230Z,13.07
2018-04-25T02:51:31.232Z,15.27
2018-04-25T02:53:59.138Z,16.37
2018-04-25T02:56:27.052Z,20.53
2018-04-25T02:58:55.039Z,15.37
2018-04-25T03:01:22.903Z,14.27
2018-04-25T03:03:50.999Z,12.63
2018-04-25T03:06:18.899Z,15.57
2018-04-25T03:08:46.808Z,12.70
2018-04-25T03:11:14.734Z,12.67
2018-04-25T03:13:42.672Z,17.93
2018-04-25T03:16:10.608Z,20.70
2018-04-25T03:18:38.499Z,14.53
2018-04-25T03:21:06.444Z,14.27
2018-04-25T03:23:34.377Z,12.97
2018-04-25T03:26:02.277Z,15.53
2018-04-25T03:28:30.210Z,16.77
2018-04-25T03:30:58.117Z,13.03
2018-04-25T03:33:26.032Z,14.37
2018-04-25T03:35:53.945Z,15.73
2018-04-25T03:38:21.881Z,16.90
2018-04-25T03:40:49.831Z,16.43
2018-04-25T03:43:17.740Z,17.23
2018-04-25T03:45:45.672Z,17.43
2018-04-25T03:48:13.603Z,19.80
2018-04-25T03:50:41.517Z,23.87
2018-04-25T03:53:09.438Z,25.40
2018-04-25T03:55:37.368Z,22.73
2018-04-25T03:58:05.283Z,24.63
2018-04-25T04:00:33.210Z,33.40
2018-04-25T04:03:01.110Z,36.50
2018-04-25T04:05:29.018Z,39.30
2018-04-25T04:07:56.924Z,41.80
2018-04-25T04:10:24.852Z,47.37
2018-04-25T04:12:53.485Z,46.73
2018-04-25T04:15:21.443Z,50.67
2018-04-25T04:17:49.362Z,51.37
2018-04-25T04:20:17.276Z,53.10
2018-04-25T04:22:45.175Z,49.90
2018-04-25T04:25:13.102Z,49.37
2018-04-25T04:27:41.007Z,56.10
2018-04-25T04:30:08.964Z,51.57
2018-04-25T04:32:36.870Z,53.90
2018-04-25T04:35:04.789Z,70.97
2018-04-25T04:37:32.704Z,70.70
2018-04-25T04:40:00.612Z,71.67
2018-04-25T04:42:28.531Z,74.90
2018-04-25T04:44:56.584Z,80.17
2018-04-25T04:47:24.891Z,84.83
2018-04-25T04:49:52.845Z,81.10
2018-04-25T04:52:20.797Z,75.30
2018-04-25T04:54:48.723Z,85.27
2018-04-25T04:57:16.643Z,89.40
2018-04-25T04:59:45.041Z,76.33
2018-04-25T05:02:12.900Z,80.70
2018-04-25T05:04:40.811Z,87.50
2018-04-25T05:07:08.766Z,96.70
2018-04-25T05:09:36.702Z,85.87
2018-04-25T05:12:04.639Z,96.80
2018-04-25T05:14:32.588Z,102.33
2018-04-25T05:17:00.490Z,94.70
2018-04-25T05:19:28.429Z,97.67
2018-04-25T05:21:56.343Z,94.00
2018-04-25T05:24:24.293Z,102.23
2018-04-25T05:26:52.199Z,101.37
2018-04-25T05:29:20.131Z,101.17
2018-04-25T05:31:48.081Z,104.07
2018-04-25T05:34:15.987Z,100.20
2018-04-25T05:36:43.901Z,93.67
2018-04-25T05:39:11.819Z,99.30
2018-04-25T05:41:39.859Z,107.40
2018-04-25T05:44:07.830Z,115.37
2018-04-25T05:46:35.759Z,105.83
2018-04-25T05:49:03.705Z,102.03
2018-04-25T05:51:31.702Z,105.90
2018-04-25T05:53:59.597Z,90.73
2018-04-25T05:56:27.541Z,100.60
2018-04-25T05:58:55.468Z,85.20
2018-04-25T06:01:23.381Z,89.27
2018-04-25T06:03:51.299Z,85.57
2018-04-25T06:06:19.245Z,80.40
2018-04-25T06:08:47.198Z,81.80
2018-04-25T06:11:15.129Z,73.00
2018-04-25T06:13:43.056Z,78.30
2018-04-25T06:16:10.985Z,67.07
2018-04-25T06:18:38.923Z,76.67
2018-04-25T06:21:06.855Z,69.30
2018-04-25T06:23:35.083Z,67.17
2018-04-25T06:26:03.016Z,68.07
2018-04-25T06:28:30.938Z,69.90
2018-04-25T06:30:58.864Z,71.40
2018-04-25T06:33:26.792Z,72.47
2018-04-25T06:35:54.864Z,68.90
2018-04-25T06:38:22.778Z,66.97
2018-04-25T06:40:50.689Z,69.53
2018-04-25T06:43:18.631Z,65.60
2018-04-25T06:45:46.561Z,66.43
2018-04-25T06:48:14.500Z,65.23
2018-04-25T06:50:42.570Z,62.53
2018-04-25T06:53:10.403Z,61.63
2018-04-25T06:55:39.194Z,63.83
2018-04-25T06:58:07.112Z,62.50
2018-04-25T07:00:35.038Z,62.33
2018-04-25T07:03:02.951Z,63.80
2018-04-25T07:05:30.865Z,58.83
2018-04-25T07:07:58.806Z,57.83
2018-04-25T07:10:26.702Z,56.50
2018-04-25T07:12:54.658Z,55.47
2018-04-25T07:15:22.565Z,51.97
2018-04-25T07:17:50.502Z,51.07
2018-04-25T07:20:18.404Z,52.03
2018-04-25T07:22:46.322Z,50.03
2018-04-25T07:25:14.267Z,48.17
2018-04-25T07:27:42.196Z,48.83
2018-04-25T07:30:10.094Z,49.07
2018-04-25T07:32:38.021Z,45.70
2018-04-25T07:35:05.931Z,49.00
2018-04-25T07:37:33.862Z,40.80
2018-04-25T07:40:01.804Z,44.67
2018-04-25T07:42:29.775Z,47.97
2018-04-25T07:44:57.671Z,46.40
2018-04-25T07:47:25.585Z,47.73
2018-04-25T07:49:53.508Z,45.40
2018-04-25T07:52:21.487Z,48.63
2018-04-25T07:54:49.348Z,47.93
2018-04-25T07:57:17.266Z,45.87
2018-04-25T07:59:45.199Z,43.07
2018-04-25T08:02:13.111Z,40.00
2018-04-25T08:04:41.059Z,42.90
2018-04-25T08:07:08.971Z,47.90
2018-04-25T08:09:36.919Z,54.67
2018-04-25T08:12:16.732Z,54.90
2018-04-25T08:14:56.369Z,61.00
2018-04-25T08:17:36.145Z,61.27
2018-04-25T08:20:15.782Z,64.50
2018-04-25T08:22:43.686Z,61.87
2018-04-25T08:25:11.644Z,65.93
2018-04-25T08:27:39.559Z,60.93
2018-04-25T08:30:07.500Z,56.70
2018-04-25T08:32:35.453Z,60.20
2018-04-25T08:35:03.397Z,56.80
2018-04-25T08:37:31.469Z,56.80
2018-04-25T08:39:59.380Z,58.50
2018-04-25T08:42:27.320Z,51.63
2018-04-25T08:44:55.310Z,49.13
2018-04-25T08:47:23.215Z,56.63
2018-04-25T08:49:51.144Z,53.60
2018-04-25T08:52:19.149Z,55.10
2018-04-25T08:54:47.067Z,50.13
2018-04-25T08:57:15.080Z,47.23
2018-04-25T08:59:43.027Z,44.60
2018-04-25T09:02:10.928Z,37.37
2018-04-25T09:04:38.901Z,34.37
2018-04-25T09:07:06.832Z,37.50
2018-04-25T09:09:34.772Z,35.20
2018-04-25T09:12:02.708Z,33.97
2018-04-25T09:14:30.624Z,35.10
2018-04-25T09:16:58.531Z,34.63
2018-04-25T09:19:26.470Z,35.07
2018-04-25T09:21:54.415Z,34.80
2018-04-25T09:24:22.339Z,34.97
2018-04-25T09:26:50.345Z,32.90
2018-04-25T09:29:18.263Z,29.97
2018-04-25T09:31:46.244Z,24.03
2018-04-25T09:34:14.196Z,22.17
2018-04-25T09:36:42.099Z,21.03
2018-04-25T09:39:10.115Z,20.57
2018-04-25T09:41:38.073Z,17.77
2018-04-25T09:44:06.011Z,13.57
2018-04-25T09:46:33.917Z,12.80
2018-04-25T09:49:01.864Z,10.90
2018-04-25T09:51:29.785Z,9.90
2018-04-25T09:53:57.671Z,7.80
2018-04-25T09:56:25.605Z,8.77
2018-04-25T09:58:53.495Z,7.57
2018-04-25T10:01:35.124Z,8.23
2018-04-25T10:04:03.084Z,8.03
2018-04-25T10:06:30.924Z,6.53
2018-04-25T10:08:58.850Z,6.13
2018-04-25T10:11:27.662Z,6.10
2018-04-25T10:13:55.582Z,5.73
2018-04-25T10:16:23.508Z,13.53
2018-04-25T10:18:51.421Z,5.23
2018-04-25T10:21:19.410Z,5.60
2018-04-25T10:23:47.261Z,5.27
2018-04-25T10:26:15.199Z,5.13
2018-04-25T10:28:43.363Z,5.33
2018-04-25T10:31:11.376Z,5.57
2018-04-25T10:33:39.294Z,5.87
2018-04-25T10:36:07.211Z,5.10
2018-04-25T10:38:35.214Z,6.90
2018-04-25T10:41:03.227Z,4.33
2018-04-25T10:43:31.137Z,4.87
2018-04-25T10:45:59.058Z,5.53
2018-04-25T10:48:27.066Z,5.23
2018-04-25T10:50:54.998Z,5.77
2018-04-25T10:53:23.027Z,6.00
2018-04-25T10:55:50.955Z,5.43
2018-04-25T10:58:18.883Z,5.53
2018-04-25T11:00:46.796Z,6.40
2018-04-25T11:03:14.794Z,6.40
2018-04-25T11:05:42.714Z,6.70
2018-04-25T11:08:10.624Z,9.60
2018-04-25T11:10:38.547Z,7.70
2018-04-25T11:13:06.455Z,7.60
2018-04-25T11:15:34.426Z,8.47
2018-04-25T11:18:02.322Z,6.33
2018-04-25T11:20:30.242Z,8.80
2018-04-25T11:22:58.172Z,10.70
2018-04-25T11:25:26.135Z,6.20
2018-04-25T11:27:54.096Z,7.43
2018-04-25T11:30:21.998Z,8.73
2018-04-25T11:32:49.900Z,8.50
2018-04-25T11:35:17.834Z,7.60
2018-04-25T11:37:45.748Z,8.50
2018-04-25T11:40:13.683Z,7.37
2018-04-25T11:42:41.689Z,9.57
2018-04-25T11:45:09.610Z,8.57
2018-04-25T11:47:37.502Z,9.97
2018-04-25T11:50:05.507Z,6.50
2018-04-25T11:52:33.409Z,8.77
2018-04-25T11:55:01.631Z,6.73
2018-04-25T11:57:29.544Z,9.73
2018-04-25T11:59:57.443Z,5.97
2018-04-25T12:02:25.371Z,6.30
2018-04-25T12:04:53.325Z,6.13
2018-04-25T12:07:21.243Z,6.60
2018-04-25T12:09:49.152Z,7.80
2018-04-25T12:12:17.091Z,8.57
2018-04-25T12:14:45.004Z,9.20
2018-04-25T12:17:12.919Z,9.77
2018-04-25T12:19:40.862Z,6.07
2018-04-25T12:22:08.783Z,5.50
2018-04-25T12:24:36.691Z,6.20
2018-04-25T12:27:04.604Z,7.00
2018-04-25T12:29:32.526Z,6.60
2018-04-25T12:32:00.449Z,4.47
2018-04-25T12:34:28.553Z,5.30
2018-04-25T12:36:56.462Z,4.63
2018-04-25T12:39:24.362Z,6.83
2018-04-25T12:41:52.292Z,5.77
2018-04-25T12:44:20.242Z,6.20
2018-04-25T12:46:48.203Z,6.47
2018-04-25T12:49:16.131Z,13.70
2018-04-25T12:51:44.052Z,11.07
2018-04-25T12:54:12.017Z,9.50
2018-04-25T12:56:39.918Z,9.60
2018-04-25T12:59:07.848Z,14.37
2018-04-25T13:01:35.893Z,9.37
2018-04-25T13:04:03.772Z,7.93
2018-04-25T13:06:31.659Z,6.80
2018-04-25T13:08:59.656Z,10.40
2018-04-25T13:11:27.626Z,5.40
2018-04-25T13:13:55.536Z,6.27
2018-04-25T13:16:23.473Z,5.90
2018-04-25T13:18:51.421Z,6.03
2018-04-25T13:21:19.355Z,6.27
2018-04-25T13:23:47.298Z,8.63
2018-04-25T13:26:15.249Z,4.23
2018-04-25T13:28:43.240Z,3.60
2018-04-25T13:31:11.073Z,4.13
2018-04-25T13:33:39.040Z,5.27
2018-04-25T13:36:06.943Z,6.00
2018-04-25T13:38:34.860Z,7.67
2018-04-25T13:41:02.778Z,4.10
2018-04-25T13:43:30.708Z,4.10
2018-04-25T13:45:58.683Z,2.70
2018-04-25T13:48:26.635Z,1.77
2018-04-25T13:50:54.550Z,2.13
2018-04-25T13:53:22.479Z,12.67
2018-04-25T13:55:50.428Z,16.50
2018-04-25T13:58:18.335Z,4.03
2018-04-25T14:00:46.345Z,3.63
2018-04-25T14:03:14.232Z,3.93
2018-04-25T14:05:42.152Z,1.83
2018-04-25T14:08:10.068Z,2.07
2018-04-25T14:10:37.989Z,3.33
2018-04-25T14:13:06.055Z,2.20
2018-04-25T14:15:33.887Z,2.23
2018-04-25T14:18:01.792Z,3.20
2018-04-25T14:20:29.699Z,2.60
2018-04-25T14:22:57.620Z,3.47
2018-04-25T14:25:25.547Z,3.37
2018-04-25T14:27:53.559Z,4.23
2018-04-25T14:30:21.592Z,3.40
2018-04-25T14:32:49.479Z,3.13
2018-04-25T14:35:17.428Z,3.30
2018-04-25T14:37:45.383Z,3.47
2018-04-25T14:40:13.341Z,4.10
2018-04-25T14:42:41.276Z,4.00
2018-04-25T14:45:10.115Z,3.77
2018-04-25T14:47:38.085Z,2.80
2018-04-25T14:50:05.999Z,4.23
2018-04-25T14:52:33.910Z,2.33
2018-04-25T14:55:01.874Z,2.33
2018-04-25T14:57:29.847Z,3.20
2018-04-25T14:59:57.898Z,3.27
2018-04-25T15:02:25.786Z,3.57
2018-04-25T15:04:53.708Z,2.27
2018-04-25T15:07:21.614Z,1.90
2018-04-25T15:09:49.560Z,2.07
2018-04-25T15:12:17.451Z,3.90
2018-04-25T15:14:45.448Z,2.83
2018-04-25T15:17:13.361Z,11.00
2018-04-25T15:19:41.355Z,30.03
2018-04-25T15:22:09.211Z,13.50
2018-04-25T15:24:37.137Z,37.80
2018-04-25T15:27:05.077Z,19.80
2018-04-25T15:29:33.243Z,46.23
2018-04-25T15:32:01.152Z,17.87
2018-04-25T15:34:29.055Z,6.80
2018-04-25T15:36:57.028Z,4.83
2018-04-25T15:39:25.001Z,4.33
2018-04-25T15:41:52.896Z,3.93
2018-04-25T15:44:20.828Z,2.87
2018-04-25T15:46:48.735Z,4.80
2018-04-25T15:49:16.706Z,3.97
2018-04-25T15:51:44.676Z,2.37
2018-04-25T15:54:12.581Z,4.00
2018-04-25T15:56:40.496Z,3.73
2018-04-25T15:59:08.537Z,2.13
2018-04-25T16:01:36.475Z,2.43
2018-04-25T16:04:04.433Z,3.50
2018-04-25T16:06:32.342Z,3.70
2018-04-25T16:09:00.236Z,2.00
2018-04-25T16:14:02.293Z,7.80
2018-04-25T16:16:30.223Z,5.90
2018-04-25T16:18:58.174Z,17.03
2018-04-25T16:21:26.086Z,11.03
2018-04-25T16:23:54.015Z,10.27
2018-04-25T16:26:21.973Z,12.20
2018-04-25T16:28:49.875Z,38.30
2018-04-25T16:31:17.843Z,32.87
2018-04-25T16:33:45.740Z,5.93
2018-04-25T16:36:13.641Z,4.53
2018-04-25T16:38:41.577Z,3.50
2018-04-25T16:41:10.286Z,2.10
2018-04-25T16:43:39.764Z,3.47
2018-04-25T16:46:15.233Z,5.90
2018-04-25T16:48:43.128Z,5.33
2018-04-25T16:51:11.277Z,6.43
2018-04-25T16:53:39.178Z,2.17
2018-04-25T16:56:07.133Z,2.27
2018-04-25T16:58:35.040Z,2.40
2018-04-25T17:01:02.959Z,3.10
2018-04-25T17:03:30.895Z,2.10
2018-04-25T17:05:59.011Z,2.87
2018-04-25T17:08:27.013Z,2.30
2018-04-25T17:10:54.986Z,3.00
2018-04-25T17:13:22.915Z,3.17
2018-04-25T17:15:50.901Z,2.20
2018-04-25T17:18:18.832Z,3.70
2018-04-25T17:20:46.747Z,4.37
2018-04-25T17:23:14.689Z,4.03
2018-04-25T17:25:42.847Z,3.83
2018-04-25T17:28:11.361Z,2.70
2018-04-25T17:30:39.299Z,2.80
2018-04-25T17:33:07.225Z,2.90
2018-04-25T17:35:35.155Z,4.67
2018-04-25T17:38:03.091Z,3.00
2018-04-25T17:40:30.991Z,6.83
2018-04-25T17:42:58.912Z,6.17
2018-04-25T17:45:26.870Z,3.10
2018-04-25T17:47:55.014Z,3.40
2018-04-25T17:50:23.014Z,5.33
2018-04-25T17:52:52.211Z,3.37
2018-04-25T17:55:20.172Z,4.17
2018-04-25T17:57:48.085Z,2.40
2018-04-25T18:00:16.051Z,2.93
2018-04-25T18:02:44.026Z,3.27
2018-04-25T18:05:11.953Z,2.60
2018-04-25T18:07:40.710Z,2.20
2018-04-25T18:10:09.144Z,7.20
2018-04-25T18:12:37.049Z,2.37
2018-04-25T18:15:04.957Z,2.93
2018-04-25T18:17:32.872Z,6.03
2018-04-25T18:20:00.786Z,3.70
2018-04-25T18:22:28.683Z,3.97
2018-04-25T18:24:56.787Z,6.07
2018-04-25T18:27:24.715Z,4.63
2018-04-25T18:29:52.609Z,5.40
2018-04-25T18:32:20.797Z,18.97
2018-04-25T18:34:48.775Z,67.13
2018-04-25T18:37:16.874Z,14.07
2018-04-25T18:39:44.790Z,58.97
2018-04-25T18:42:12.718Z,28.40
2018-04-25T18:44:40.679Z,28.87
2018-04-25T18:47:09.143Z,10.37
2018-04-25T18:49:39.087Z,6.60
2018-04-25T18:52:07.278Z,5.00
2018-04-25T18:54:35.297Z,3.67
2018-04-25T18:57:03.217Z,5.70
2018-04-25T18:59:31.147Z,5.77
2018-04-25T19:01:59.041Z,3.63
2018-04-25T19:04:26.989Z,4.50
2018-04-25T19:06:54.875Z,7.37
2018-04-25T19:09:22.843Z,8.47
2018-04-25T19:11:50.756Z,3.33
2018-04-25T19:14:18.838Z,6.20
2018-04-25T19:16:46.751Z,2.67
2018-04-25T19:19:14.647Z,4.27
2018-04-25T19:21:42.650Z,4.67
2018-04-25T19:24:10.682Z,5.47
2018-04-25T19:26:38.593Z,6.33
2018-04-25T19:29:06.516Z,7.93
2018-04-25T19:31:34.456Z,7.37
2018-04-25T19:34:02.363Z,6.47
2018-04-25T19:36:30.293Z,5.40
2018-04-25T19:38:58.172Z,3.83
2018-04-25T19:41:26.084Z,7.30
2018-04-25T19:43:54.026Z,6.03
2018-04-25T19:46:21.939Z,5.03
2018-04-25T19:48:49.838Z,4.93
2018-04-25T19:51:17.756Z,7.60
2018-04-25T19:53:45.657Z,5.70
2018-04-25T19:56:14.103Z,6.70
2018-04-25T19:58:42.005Z,5.20
2018-04-25T20:01:09.924Z,4.97
2018-04-25T20:03:37.848Z,3.57
2018-04-25T20:06:05.764Z,6.17
2018-04-25T20:08:33.707Z,5.67
2018-04-25T20:11:01.638Z,4.70
2018-04-25T20:13:29.562Z,4.70
2018-04-25T20:15:57.513Z,5.90
2018-04-25T20:18:25.404Z,6.57
2018-04-25T20:20:53.308Z,5.33
2018-04-25T20:23:21.203Z,4.80
2018-04-25T20:25:49.098Z,5.00
2018-04-25T20:28:16.993Z,6.83
2018-04-25T20:30:44.891Z,5.20
2018-04-25T20:33:12.799Z,4.43
2018-04-25T20:35:40.734Z,5.70
2018-04-25T20:38:08.628Z,5.97
2018-04-25T20:40:36.518Z,6.30
2018-04-25T20:43:04.419Z,6.83
2018-04-25T20:45:32.327Z,9.13
2018-04-25T20:48:00.394Z,3.90
2018-04-25T20:50:28.334Z,6.93
2018-04-25T20:52:56.231Z,4.90
2018-04-25T20:55:24.134Z,6.47
2018-04-25T20:57:52.042Z,7.13
2018-04-25T21:00:19.964Z,9.07
2018-04-25T21:02:47.848Z,7.47
2018-04-25T21:05:15.745Z,7.70
2018-04-25T21:07:43.653Z,8.80
2018-04-25T21:10:11.616Z,8.67
2018-04-25T21:12:39.551Z,6.87
2018-04-25T21:15:07.448Z,6.97
2018-04-25T21:17:35.371Z,9.00
2018-04-25T21:20:03.261Z,6.10
2018-04-25T21:22:31.165Z,8.03
2018-04-25T21:24:59.088Z,5.20
2018-04-25T21:27:26.998Z,7.13
2018-04-25T21:29:54.897Z,9.80
2018-04-25T21:32:22.799Z,7.90
2018-04-25T21:34:50.723Z,6.90
2018-04-25T21:37:18.993Z,8.17
2018-04-25T21:39:46.899Z,7.83
2018-04-25T21:42:14.808Z,7.70
2018-04-25T21:44:42.721Z,5.93
2018-04-25T21:47:10.625Z,9.30
2018-04-25T21:49:38.543Z,13.77
2018-04-25T21:52:06.465Z,8.03
2018-04-25T21:54:34.458Z,7.67
2018-04-25T21:57:02.365Z,7.07
2018-04-25T21:59:30.323Z,5.60
2018-04-25T22:01:58.260Z,6.33
2018-04-25T22:04:26.186Z,5.77
2018-04-25T22:06:54.639Z,7.10
2018-04-25T22:09:22.527Z,8.17
2018-04-25T22:11:50.522Z,7.20
2018-04-25T22:14:18.435Z,6.90
2018-04-25T22:16:46.428Z,8.50
2018-04-25T22:19:14.315Z,10.60
2018-04-25T22:21:42.239Z,7.27
2018-04-25T22:24:10.252Z,10.53
2018-04-25T22:26:38.158Z,8.00
2018-04-25T22:29:06.138Z,7.23
2018-04-25T22:31:34.052Z,4.97
2018-04-25T22:34:02.665Z,7.33
2018-04-25T22:36:30.591Z,6.00
2018-04-25T22:38:58.520Z,4.30
2018-04-25T22:41:26.418Z,4.30
2018-04-25T22:43:54.335Z,11.63
2018-04-25T22:46:22.237Z,8.00
2018-04-25T22:48:50.181Z,4.23
2018-04-25T22:51:18.076Z,7.07
2018-04-25T22:53:48.068Z,6.47
2018-04-25T22:56:15.959Z,7.20
2018-04-25T22:58:43.904Z,8.83
2018-04-25T23:01:12.181Z,6.40
2018-04-25T23:03:40.089Z,6.60
2018-04-25T23:06:08.114Z,7.30
2018-04-25T23:08:36.825Z,5.40
2018-04-25T23:11:04.791Z,5.37
2018-04-25T23:13:32.698Z,6.00
2018-04-25T23:16:00.604Z,5.70
2018-04-25T23:18:28.528Z,6.17
2018-04-25T23:20:56.443Z,7.10
2018-04-25T23:23:24.338Z,5.70
2018-04-25T23:25:52.239Z,6.53
2018-04-25T23:28:21.088Z,6.97
2018-04-25T23:30:49.020Z,8.20
2018-04-25T23:33:16.931Z,7.00
2018-04-25T23:35:44.836Z,6.33
2018-04-25T23:38:12.744Z,6.50
2018-04-25T23:40:40.759Z,6.90
2018-04-25T23:43:08.652Z,6.37
2018-04-25T23:45:36.561Z,8.73
2018-04-25T23:48:04.481Z,7.27
2018-04-25T23:50:32.399Z,6.87
2018-04-25T23:53:00.342Z,8.10
2018-04-25T23:55:28.260Z,11.17
2018-04-25T23:57:56.182Z,8.63
